Terminal Aerodrome Forecast
Issued by NWS Louisville, KY

Home | Current Version | Previous Version | Text Only | Print | Product List | Glossary On
Versions: 1 2 3 4 5 6 7 8 9 10 11 12 13 14 15 16 17 18 19
000
FTUS43 KLMK 271700
TAFSDF
TAF
KSDF 271728Z 2718/2824 21011G17KT P6SM VCTS SCT030CB BKN040
      TEMPO 2718/2719 VRB20G30KT 2SM TSRA BKN025CB
     FM271900 22011KT P6SM SCT040 BKN120
     FM272200 23010KT P6SM VCTS SCT040CB BKN120
     FM280100 22005KT P6SM VCSH BKN100
     FM280900 00000KT 6SM BR SCT250
     FM281400 18005KT P6SM SCT030 BKN250=

USA.gov is the U.S. government's official web portal to all federal, state and local government web resources and services.